createdAt,value
2018-06-16T00:00:59.148Z,39.00
2018-06-16T00:03:27.269Z,39.00
2018-06-16T00:05:55.377Z,39.00
2018-06-16T00:08:23.441Z,39.00
2018-06-16T00:13:19.400Z,39.00
2018-06-16T00:15:47.480Z,39.00
2018-06-16T00:18:15.549Z,39.00
2018-06-16T00:20:43.620Z,39.00
2018-06-16T00:23:11.730Z,39.00
2018-06-16T00:25:39.825Z,39.00
2018-06-16T00:28:07.900Z,39.00
2018-06-16T00:30:35.968Z,39.00
2018-06-16T00:33:04.052Z,39.00
2018-06-16T00:35:32.161Z,39.00
2018-06-16T00:38:00.273Z,39.00
2018-06-16T00:40:28.396Z,39.00
2018-06-16T00:42:56.578Z,39.00
2018-06-16T00:45:24.734Z,38.90
2018-06-16T00:47:52.800Z,39.00
2018-06-16T00:50:20.856Z,38.90
2018-06-16T00:52:48.944Z,39.00
2018-06-16T00:55:16.995Z,38.90
2018-06-16T00:57:47.211Z,39.00
2018-06-16T01:00:16.421Z,39.00
2018-06-16T01:02:44.505Z,38.90
2018-06-16T01:05:12.797Z,39.00
2018-06-16T01:07:40.852Z,39.00
2018-06-16T01:10:10.233Z,39.00
2018-06-16T01:12:38.795Z,39.60
2018-06-16T01:15:06.947Z,39.00
2018-06-16T01:17:35.068Z,39.00
2018-06-16T01:20:03.324Z,39.00
2018-06-16T01:22:31.980Z,39.00
2018-06-16T01:25:00.188Z,39.00
2018-06-16T01:27:28.909Z,39.00
2018-06-16T01:32:25.275Z,39.00
2018-06-16T01:34:53.346Z,39.00
2018-06-16T01:37:21.416Z,39.00
2018-06-16T01:39:49.524Z,39.00
2018-06-16T01:42:17.605Z,39.00
2018-06-16T01:44:45.680Z,39.00
2018-06-16T01:47:13.768Z,39.00
2018-06-16T01:49:41.835Z,39.00
2018-06-16T01:52:09.928Z,39.00
2018-06-16T01:54:37.992Z,39.00
2018-06-16T01:57:06.201Z,39.00
2018-06-16T01:59:34.300Z,38.90
2018-06-16T02:02:02.486Z,38.90
2018-06-16T02:04:30.589Z,39.00
2018-06-16T02:09:26.561Z,38.80
2018-06-16T02:11:54.661Z,39.70
2018-06-16T02:14:23.235Z,39.00
2018-06-16T02:16:51.323Z,39.00
2018-06-16T02:19:19.593Z,39.00
2018-06-16T02:21:47.768Z,39.00
2018-06-16T02:24:15.861Z,39.00
2018-06-16T02:26:43.963Z,39.00
2018-06-16T02:29:12.049Z,39.00
2018-06-16T02:31:40.112Z,39.00
2018-06-16T02:34:08.196Z,39.00
2018-06-16T02:36:36.302Z,39.00
2018-06-16T02:41:34.137Z,39.00
2018-06-16T02:44:02.232Z,39.00
2018-06-16T02:46:30.331Z,39.00
2018-06-16T02:48:58.481Z,39.00
2018-06-16T02:51:26.588Z,39.00
2018-06-16T02:53:54.663Z,39.10
2018-06-16T02:56:22.740Z,39.10
2018-06-16T02:58:50.791Z,39.00
2018-06-16T03:01:18.880Z,39.10
2018-06-16T03:03:46.956Z,39.10
2018-06-16T03:06:15.252Z,39.10
2018-06-16T03:08:43.320Z,39.10
2018-06-16T03:11:11.412Z,39.70
2018-06-16T03:13:39.487Z,39.10
2018-06-16T03:16:07.617Z,39.10
2018-06-16T03:18:35.693Z,39.10
2018-06-16T03:21:03.794Z,39.10
2018-06-16T03:23:31.919Z,39.20
2018-06-16T03:25:59.997Z,39.20
2018-06-16T03:28:28.097Z,39.20
2018-06-16T03:30:56.179Z,39.20
2018-06-16T03:33:24.270Z,39.20
2018-06-16T03:35:52.347Z,39.20
2018-06-16T03:38:20.436Z,39.20
2018-06-16T03:40:48.525Z,39.20
2018-06-16T03:43:16.590Z,39.30
2018-06-16T03:45:44.670Z,39.20
2018-06-16T03:48:12.734Z,39.30
2018-06-16T03:50:40.858Z,39.30
2018-06-16T03:53:08.972Z,39.30
2018-06-16T03:55:37.097Z,39.30
2018-06-16T03:58:05.212Z,39.30
2018-06-16T04:00:33.308Z,39.30
2018-06-16T04:03:01.504Z,39.30
2018-06-16T04:07:57.532Z,39.40
2018-06-16T04:10:25.618Z,39.30
2018-06-16T04:12:53.779Z,39.40
2018-06-16T04:15:21.889Z,39.40
2018-06-16T04:17:49.993Z,39.40
2018-06-16T04:20:18.061Z,39.40
2018-06-16T04:22:46.131Z,39.50
2018-06-16T04:25:14.302Z,39.50
2018-06-16T04:27:42.406Z,39.50
2018-06-16T04:30:10.475Z,39.50
2018-06-16T04:32:38.693Z,39.50
2018-06-16T04:35:06.784Z,39.50
2018-06-16T04:37:34.917Z,39.60
2018-06-16T04:40:03.022Z,39.60
2018-06-16T04:42:31.153Z,39.60
2018-06-16T04:44:59.317Z,39.60
2018-06-16T04:47:27.455Z,39.70
2018-06-16T04:49:55.555Z,39.70
2018-06-16T04:52:23.621Z,39.70
2018-06-16T04:54:51.692Z,39.80
2018-06-16T04:59:47.737Z,39.80
2018-06-16T05:02:15.803Z,39.80
2018-06-16T05:04:43.923Z,40.50
2018-06-16T05:07:11.997Z,39.90
2018-06-16T05:12:07.958Z,40.00
2018-06-16T05:14:36.045Z,40.00
2018-06-16T05:17:04.241Z,40.00
2018-06-16T05:19:32.325Z,40.00
2018-06-16T05:22:00.452Z,40.00
2018-06-16T05:24:28.891Z,40.00
2018-06-16T05:26:56.985Z,40.10
2018-06-16T05:29:25.057Z,40.10
2018-06-16T05:31:53.160Z,40.10
2018-06-16T05:34:21.307Z,40.10
2018-06-16T05:36:49.380Z,40.20
2018-06-16T05:39:17.465Z,40.20
2018-06-16T05:41:45.616Z,40.20
2018-06-16T05:44:13.698Z,40.20
2018-06-16T05:46:41.901Z,40.30
2018-06-16T05:49:09.955Z,40.30
2018-06-16T05:51:38.036Z,40.30
2018-06-16T05:54:06.260Z,40.40
2018-06-16T05:56:34.392Z,41.10
2018-06-16T05:59:02.484Z,40.50
2018-06-16T06:01:30.601Z,40.60
2018-06-16T06:03:58.789Z,40.60
2018-06-16T06:06:26.981Z,41.30
2018-06-16T06:08:55.074Z,40.60
2018-06-16T06:11:23.177Z,40.70
2018-06-16T06:13:51.381Z,40.60
2018-06-16T06:16:19.461Z,40.60
2018-06-16T06:18:47.633Z,40.70
2018-06-16T06:21:15.701Z,40.80
2018-06-16T06:23:43.769Z,40.90
2018-06-16T06:26:11.840Z,40.90
2018-06-16T06:28:40.009Z,40.90
2018-06-16T06:31:08.084Z,40.90
2018-06-16T06:33:36.245Z,41.00
2018-06-16T06:36:04.511Z,41.00
2018-06-16T06:38:32.617Z,41.00
2018-06-16T06:41:00.794Z,41.00
2018-06-16T06:43:29.011Z,41.00
2018-06-16T06:45:57.129Z,41.10
2018-06-16T06:48:25.226Z,41.10
2018-06-16T06:50:53.304Z,41.10
2018-06-16T06:53:21.434Z,41.10
2018-06-16T06:55:49.503Z,41.10
2018-06-16T06:58:17.572Z,41.20
2018-06-16T07:00:45.712Z,41.20
2018-06-16T07:03:13.800Z,41.20
2018-06-16T07:05:41.887Z,41.20
2018-06-16T07:08:09.957Z,41.20
2018-06-16T07:10:38.061Z,41.20
2018-06-16T07:13:06.147Z,41.20
2018-06-16T07:15:34.296Z,41.20
2018-06-16T07:18:02.461Z,41.20
2018-06-16T07:20:30.610Z,41.20
2018-06-16T07:22:58.731Z,41.20
2018-06-16T07:25:26.862Z,41.20
2018-06-16T07:27:54.914Z,41.30
2018-06-16T07:30:24.011Z,41.40
2018-06-16T07:32:52.133Z,41.50
2018-06-16T07:35:20.204Z,41.50
2018-06-16T07:37:48.304Z,41.40
2018-06-16T07:40:16.413Z,41.50
2018-06-16T07:42:44.593Z,41.40
2018-06-16T07:45:12.669Z,41.40
2018-06-16T07:47:40.780Z,41.40
2018-06-16T07:50:08.960Z,41.50
2018-06-16T07:52:37.048Z,41.50
2018-06-16T07:55:05.377Z,41.50
2018-06-16T07:57:33.476Z,42.10
2018-06-16T08:00:01.630Z,41.40
2018-06-16T08:02:29.797Z,41.50
2018-06-16T08:04:57.909Z,41.50
2018-06-16T08:07:26.026Z,41.50
2018-06-16T08:09:54.125Z,41.50
2018-06-16T08:12:22.196Z,41.50
2018-06-16T08:14:50.276Z,41.50
2018-06-16T08:17:18.336Z,41.60
2018-06-16T08:19:46.435Z,41.50
2018-06-16T08:22:14.601Z,41.50
2018-06-16T08:24:42.807Z,41.50
2018-06-16T08:27:10.988Z,41.50
2018-06-16T08:29:39.112Z,41.40
2018-06-16T08:32:07.256Z,41.40
2018-06-16T08:34:35.361Z,41.40
2018-06-16T08:37:03.520Z,41.30
2018-06-16T08:39:31.702Z,41.40
2018-06-16T08:41:59.919Z,41.30
2018-06-16T08:44:28.026Z,41.30
2018-06-16T08:46:56.110Z,42.00
2018-06-16T08:49:24.235Z,41.40
2018-06-16T08:51:52.312Z,41.40
2018-06-16T08:54:20.437Z,41.50
2018-06-16T08:56:48.597Z,41.50
2018-06-16T09:04:12.592Z,42.70
2018-06-16T09:06:40.708Z,42.60
2018-06-16T09:09:09.368Z,42.60
2018-06-16T09:11:37.611Z,42.60
2018-06-16T09:14:05.769Z,43.00
2018-06-16T09:19:02.470Z,43.40
2018-06-16T09:21:30.596Z,44.30
2018-06-16T09:23:58.714Z,43.80
2018-06-16T09:26:26.858Z,43.50
2018-06-16T09:28:54.961Z,43.40
2018-06-16T09:31:23.084Z,43.70
2018-06-16T09:33:51.209Z,43.40
2018-06-16T09:36:19.403Z,43.30
2018-06-16T09:38:47.405Z,43.60
2018-06-16T09:41:15.509Z,43.50
2018-06-16T09:43:43.672Z,43.40
2018-06-16T09:46:11.778Z,43.40
2018-06-16T09:48:39.887Z,43.90
2018-06-16T09:53:35.940Z,44.20
2018-06-16T09:56:04.241Z,44.50
2018-06-16T10:01:00.344Z,44.00
2018-06-16T10:03:28.642Z,43.90
2018-06-16T10:05:56.819Z,44.00
2018-06-16T10:08:25.033Z,44.60
2018-06-16T10:10:53.140Z,44.10
2018-06-16T10:13:21.229Z,44.00
2018-06-16T10:15:49.337Z,44.00
2018-06-16T10:23:13.191Z,44.60
2018-06-16T10:25:41.287Z,44.30
2018-06-16T10:28:09.397Z,44.90
2018-06-16T10:30:37.491Z,45.00
2018-06-16T10:33:05.644Z,45.20
2018-06-16T10:35:33.803Z,45.20
2018-06-16T10:38:01.904Z,45.40
2018-06-16T10:40:30.152Z,45.50
2018-06-16T10:42:58.475Z,45.70
2018-06-16T10:45:26.597Z,46.40
2018-06-16T10:47:54.737Z,46.10
2018-06-16T10:50:22.812Z,46.20
2018-06-16T10:52:51.000Z,46.40
2018-06-16T10:55:19.120Z,46.30
2018-06-16T10:57:47.189Z,46.10
2018-06-16T11:02:43.400Z,46.00
2018-06-16T11:05:11.527Z,46.00
2018-06-16T11:10:07.594Z,46.00
2018-06-16T11:12:35.717Z,46.20
2018-06-16T11:15:03.833Z,46.00
2018-06-16T11:17:31.912Z,46.70
2018-06-16T11:20:00.196Z,46.10
2018-06-16T11:22:28.293Z,45.80
2018-06-16T11:24:56.451Z,46.00
2018-06-16T11:27:24.676Z,45.90
2018-06-16T11:29:52.732Z,45.60
2018-06-16T11:32:20.886Z,46.00
2018-06-16T11:34:48.974Z,45.80
2018-06-16T11:37:17.163Z,47.00
2018-06-16T11:39:45.284Z,46.60
2018-06-16T11:42:13.377Z,46.80
2018-06-16T11:44:41.501Z,46.30
2018-06-16T11:47:09.577Z,46.30
2018-06-16T11:49:37.656Z,47.00
2018-06-16T11:52:05.834Z,46.70
2018-06-16T11:54:34.010Z,46.50
2018-06-16T11:57:02.296Z,46.80
2018-06-16T11:59:30.534Z,46.60
2018-06-16T12:01:58.743Z,46.70
2018-06-16T12:04:27.908Z,47.00
2018-06-16T12:06:56.030Z,47.50
2018-06-16T12:09:24.160Z,47.60
2018-06-16T12:11:52.240Z,48.00
2018-06-16T12:14:20.316Z,47.60
2018-06-16T12:16:48.401Z,47.80
2018-06-16T12:19:16.487Z,47.60
2018-06-16T12:21:44.581Z,47.50
2018-06-16T12:24:12.688Z,47.80
2018-06-16T12:26:40.809Z,48.30
2018-06-16T12:29:08.948Z,48.20
2018-06-16T12:31:37.024Z,48.50
2018-06-16T12:36:33.285Z,48.80
2018-06-16T12:39:01.437Z,49.30
2018-06-16T12:41:30.026Z,48.60
2018-06-16T12:43:58.176Z,48.60
2018-06-16T12:46:26.420Z,48.90
2018-06-16T12:56:18.825Z,48.90
2018-06-16T12:58:46.913Z,49.30
2018-06-16T13:01:15.188Z,49.30
2018-06-16T13:03:43.276Z,49.00
2018-06-16T13:06:11.516Z,49.10
2018-06-16T13:08:39.612Z,49.50
2018-06-16T13:11:07.808Z,49.70
2018-06-16T13:13:35.893Z,49.90
2018-06-16T13:18:31.995Z,51.90
2018-06-16T13:21:00.104Z,51.40
2018-06-16T13:23:28.479Z,51.70
2018-06-16T13:25:56.696Z,52.90
2018-06-16T13:28:24.828Z,53.00
2018-06-16T13:30:52.944Z,52.80
2018-06-16T13:33:21.116Z,53.10
2018-06-16T13:35:49.239Z,53.40
2018-06-16T13:38:17.308Z,53.50
2018-06-16T13:40:45.384Z,53.50
2018-06-16T13:43:13.473Z,54.00
2018-06-16T13:45:41.527Z,54.10
2018-06-16T13:48:09.652Z,54.30
2018-06-16T13:50:37.833Z,54.20
2018-06-16T13:53:05.953Z,54.50
2018-06-16T13:55:34.060Z,54.60
2018-06-16T13:58:02.250Z,54.60
2018-06-16T14:00:30.358Z,54.70
2018-06-16T14:02:58.645Z,54.40
2018-06-16T14:05:26.764Z,54.90
2018-06-16T14:07:54.901Z,54.10
2018-06-16T14:12:51.128Z,53.50
2018-06-16T14:15:19.200Z,53.50
2018-06-16T14:17:47.269Z,53.30
2018-06-16T14:20:15.656Z,53.10
2018-06-16T14:22:43.808Z,53.40
2018-06-16T14:25:11.924Z,53.40
2018-06-16T14:27:40.048Z,53.30
2018-06-16T14:30:08.329Z,53.20
2018-06-16T14:32:36.439Z,52.90
2018-06-16T14:35:04.590Z,52.40
2018-06-16T14:37:32.637Z,52.20
2018-06-16T14:40:00.731Z,52.30
2018-06-16T14:42:28.802Z,52.00
2018-06-16T14:47:24.804Z,52.40
2018-06-16T14:49:52.888Z,52.20
2018-06-16T14:52:21.147Z,52.00
2018-06-16T14:57:17.315Z,51.80
2018-06-16T14:59:45.401Z,51.70
2018-06-16T15:02:13.849Z,51.60
2018-06-16T15:04:42.080Z,51.50
2018-06-16T15:07:10.173Z,51.40
2018-06-16T15:09:38.276Z,51.40
2018-06-16T15:12:06.676Z,51.10
2018-06-16T15:14:34.794Z,51.10
2018-06-16T15:17:02.901Z,51.10
2018-06-16T15:21:58.940Z,50.50
2018-06-16T15:26:54.982Z,50.40
2018-06-16T15:29:23.248Z,50.10
2018-06-16T15:31:51.420Z,50.40
2018-06-16T15:34:19.589Z,50.40
2018-06-16T15:39:15.592Z,51.10
2018-06-16T15:41:43.701Z,50.70
2018-06-16T15:44:11.976Z,50.40
2018-06-16T15:46:40.060Z,50.00
2018-06-16T15:49:08.164Z,50.10
2018-06-16T15:51:36.342Z,49.70
2018-06-16T15:54:04.445Z,49.50
2018-06-16T15:56:32.585Z,49.20
2018-06-16T15:59:00.661Z,49.20
2018-06-16T16:01:28.725Z,48.90
2018-06-16T16:03:56.832Z,48.70
2018-06-16T16:06:24.912Z,48.50
2018-06-16T16:08:53.066Z,47.10
2018-06-16T16:13:49.076Z,46.00
2018-06-16T16:16:17.272Z,46.30
2018-06-16T16:18:45.381Z,46.50
2018-06-16T16:21:13.488Z,46.20
2018-06-16T16:23:41.631Z,46.20
2018-06-16T16:26:09.776Z,43.10
2018-06-16T16:28:37.889Z,44.50
2018-06-16T16:31:06.049Z,46.20
2018-06-16T16:33:34.145Z,45.70
2018-06-16T16:36:02.242Z,44.10
2018-06-16T16:38:30.356Z,44.00
2018-06-16T16:40:58.467Z,44.80
2018-06-16T16:45:54.484Z,45.30
2018-06-16T16:48:22.552Z,45.30
2018-06-16T16:50:50.641Z,45.30
2018-06-16T16:53:18.721Z,45.90
2018-06-16T16:55:46.808Z,45.30
2018-06-16T16:58:14.893Z,45.30
2018-06-16T17:00:43.165Z,45.30
2018-06-16T17:03:11.278Z,45.40
2018-06-16T17:05:39.376Z,45.40
2018-06-16T17:08:07.500Z,45.30
2018-06-16T17:13:03.710Z,45.30
2018-06-16T17:15:31.824Z,45.10
2018-06-16T17:17:59.896Z,45.20
2018-06-16T17:20:27.976Z,45.20
2018-06-16T17:22:56.048Z,45.20
2018-06-16T17:25:24.268Z,45.10
2018-06-16T17:27:52.352Z,45.20
2018-06-16T17:30:20.481Z,45.20
2018-06-16T17:32:48.579Z,45.20
2018-06-16T17:35:16.764Z,45.20
2018-06-16T17:37:44.885Z,45.10
2018-06-16T17:40:13.048Z,45.10
2018-06-16T17:42:41.227Z,45.00
2018-06-16T17:45:09.392Z,45.00
2018-06-16T17:47:37.618Z,45.00
2018-06-16T17:50:05.802Z,45.00
2018-06-16T17:52:33.860Z,44.90
2018-06-16T17:55:01.941Z,44.80
2018-06-16T17:57:30.013Z,44.80
2018-06-16T17:59:58.200Z,44.70
2018-06-16T18:02:26.455Z,44.50
2018-06-16T18:04:54.669Z,44.60
2018-06-16T18:07:22.697Z,44.00
2018-06-16T18:09:50.776Z,44.40
2018-06-16T18:12:18.883Z,44.20
2018-06-16T18:14:46.971Z,44.20
2018-06-16T18:17:15.061Z,44.30
2018-06-16T18:19:43.212Z,44.40
2018-06-16T18:22:11.360Z,44.40
2018-06-16T18:24:39.493Z,44.30
2018-06-16T18:27:07.646Z,44.80
2018-06-16T18:29:35.753Z,44.30
2018-06-16T18:32:03.862Z,44.30
2018-06-16T18:34:31.949Z,44.20
2018-06-16T18:37:00.038Z,44.20
2018-06-16T18:39:28.155Z,44.20
2018-06-16T18:41:56.232Z,44.10
2018-06-16T18:44:24.544Z,44.40
2018-06-16T18:49:20.524Z,44.30
2018-06-16T18:51:48.591Z,44.30
2018-06-16T18:54:16.702Z,44.30
2018-06-16T18:56:44.812Z,44.30
2018-06-16T18:59:13.022Z,44.30
2018-06-16T19:01:41.177Z,44.40
2018-06-16T19:04:09.291Z,44.40
2018-06-16T19:06:37.445Z,44.50
2018-06-16T19:09:07.446Z,44.60
2018-06-16T19:11:35.689Z,44.60
2018-06-16T19:14:03.753Z,44.60
2018-06-16T19:16:31.837Z,44.70
2018-06-16T19:19:00.068Z,44.70
2018-06-16T19:21:28.172Z,44.70
2018-06-16T19:23:56.249Z,44.80
2018-06-16T19:26:24.398Z,44.70
2018-06-16T19:28:52.476Z,44.80
2018-06-16T19:31:20.602Z,44.80
2018-06-16T19:33:48.692Z,44.80
2018-06-16T19:36:16.793Z,44.80
2018-06-16T19:38:44.887Z,44.80
2018-06-16T19:41:13.010Z,44.90
2018-06-16T19:43:41.145Z,44.90
2018-06-16T19:46:09.313Z,44.90
2018-06-16T19:48:37.457Z,44.90
2018-06-16T19:51:05.574Z,45.00
2018-06-16T19:56:01.605Z,45.10
2018-06-16T19:58:29.688Z,45.00
2018-06-16T20:00:57.841Z,45.10
2018-06-16T20:03:25.938Z,45.10
2018-06-16T20:06:00.847Z,45.10
2018-06-16T20:08:28.908Z,45.10
2018-06-16T20:10:57.046Z,45.10
2018-06-16T20:13:25.152Z,45.10
2018-06-16T20:15:53.252Z,45.20
2018-06-16T20:18:21.345Z,45.10
2018-06-16T20:20:49.420Z,45.20
2018-06-16T20:23:17.562Z,45.20
2018-06-16T20:25:45.652Z,45.20
2018-06-16T20:28:13.747Z,45.20
2018-06-16T20:30:41.849Z,45.30
2018-06-16T20:33:09.997Z,45.30
2018-06-16T20:35:38.168Z,45.30
2018-06-16T20:40:34.154Z,45.40
2018-06-16T20:43:02.256Z,45.40
2018-06-16T20:45:30.319Z,45.40
2018-06-16T20:47:58.456Z,45.50
2018-06-16T20:50:26.552Z,45.50
2018-06-16T20:52:54.624Z,45.50
2018-06-16T20:55:22.709Z,45.60
2018-06-16T20:57:50.777Z,45.60
2018-06-16T21:00:18.849Z,45.60
2018-06-16T21:02:46.951Z,45.60
2018-06-16T21:05:15.061Z,45.60
2018-06-16T21:07:43.196Z,45.60
2018-06-16T21:10:11.304Z,45.60
2018-06-16T21:12:39.625Z,45.60
2018-06-16T21:15:07.716Z,45.60
2018-06-16T21:20:04.813Z,45.70
2018-06-16T21:22:32.880Z,45.60
2018-06-16T21:25:01.044Z,45.60
2018-06-16T21:27:29.106Z,45.70
2018-06-16T21:29:57.186Z,45.70
2018-06-16T21:32:25.255Z,45.70
2018-06-16T21:34:53.492Z,45.70
2018-06-16T21:37:21.572Z,45.80
2018-06-16T21:39:49.652Z,45.70
2018-06-16T21:42:17.728Z,45.70
2018-06-16T21:44:45.856Z,45.70
2018-06-16T21:49:41.921Z,45.10
2018-06-16T21:52:10.039Z,45.70
2018-06-16T21:54:38.165Z,45.80
2018-06-16T21:57:06.785Z,45.80
2018-06-16T21:59:35.021Z,45.80
2018-06-16T22:02:03.081Z,46.40
2018-06-16T22:04:31.281Z,45.80
2018-06-16T22:06:59.408Z,45.80
2018-06-16T22:09:27.528Z,45.80
2018-06-16T22:11:55.707Z,45.80
2018-06-16T22:14:23.867Z,45.80
2018-06-16T22:16:51.969Z,45.90
2018-06-16T22:19:20.203Z,45.90
2018-06-16T22:21:48.328Z,45.40
2018-06-16T22:24:16.400Z,45.90
2018-06-16T22:26:44.497Z,46.00
2018-06-16T22:29:12.600Z,46.00
2018-06-16T22:31:40.685Z,46.00
2018-06-16T22:34:08.854Z,46.10
2018-06-16T22:36:37.054Z,46.20
2018-06-16T22:39:08.273Z,46.20
2018-06-16T22:41:36.403Z,46.40
2018-06-16T22:44:04.572Z,46.40
2018-06-16T22:46:32.632Z,46.50
2018-06-16T22:49:00.717Z,46.50
2018-06-16T22:51:28.837Z,46.70
2018-06-16T22:53:56.960Z,46.70
2018-06-16T22:56:25.033Z,46.80
2018-06-16T22:58:53.122Z,46.90
2018-06-16T23:01:21.280Z,47.00
2018-06-16T23:03:49.452Z,47.20
2018-06-16T23:06:17.604Z,47.20
2018-06-16T23:08:45.750Z,47.40
2018-06-16T23:11:13.921Z,47.40
2018-06-16T23:13:42.148Z,47.50
2018-06-16T23:16:10.262Z,47.60
2018-06-16T23:18:38.441Z,47.70
2018-06-16T23:21:06.579Z,47.70
2018-06-16T23:23:34.662Z,47.80
2018-06-16T23:26:02.742Z,47.70
2018-06-16T23:28:30.861Z,48.40
2018-06-16T23:30:58.972Z,48.40
2018-06-16T23:33:27.136Z,48.00
2018-06-16T23:35:55.246Z,48.00
2018-06-16T23:38:23.353Z,48.10
2018-06-16T23:40:51.444Z,48.30
2018-06-16T23:43:19.524Z,48.80
2018-06-16T23:45:47.608Z,48.50
2018-06-16T23:48:15.736Z,48.60
2018-06-16T23:50:43.899Z,48.60
2018-06-16T23:55:39.977Z,48.30
2018-06-16T23:58:08.118Z,48.80
